createdAt,value
2019-02-23T20:37:50.644Z,79.10
2019-02-23T20:40:23.465Z,79.10
2019-02-23T20:42:53.630Z,79.00
2019-02-23T20:45:23.799Z,78.60
2019-02-23T20:47:54.057Z,79.10
2019-02-23T20:50:26.505Z,78.70
2019-02-23T20:52:56.650Z,77.80
2019-02-23T20:55:27.644Z,77.20
2019-02-23T20:58:04.157Z,76.70
2019-02-23T21:00:34.304Z,77.00
2019-02-23T21:03:04.434Z,77.50
2019-02-23T21:05:34.628Z,77.20
2019-02-23T21:08:04.797Z,76.30
2019-02-23T21:10:34.935Z,75.90
2019-02-23T21:13:05.060Z,76.00
2019-02-23T21:15:35.184Z,76.50
2019-02-23T21:18:05.313Z,77.00
2019-02-23T21:20:35.469Z,77.30
2019-02-23T21:23:05.976Z,77.00
2019-02-23T21:25:36.114Z,78.00
2019-02-23T21:28:06.226Z,78.40
2019-02-23T21:30:36.362Z,78.00
2019-02-23T21:33:06.510Z,77.70
2019-02-23T21:35:36.641Z,78.00
2019-02-23T21:38:06.767Z,77.40
2019-02-23T21:40:36.906Z,78.40
2019-02-23T21:43:07.035Z,78.50
2019-02-23T21:45:37.199Z,78.70
2019-02-23T21:48:07.320Z,78.60
2019-02-23T21:50:37.470Z,79.10
2019-02-23T21:53:07.625Z,79.00
2019-02-23T21:55:37.745Z,79.90
2019-02-23T21:58:07.873Z,80.40
2019-02-23T22:00:38.020Z,80.80
2019-02-23T22:03:08.145Z,81.10
2019-02-23T22:05:38.429Z,80.80
2019-02-23T22:08:08.514Z,82.00
2019-02-23T22:10:38.705Z,81.80
2019-02-23T22:13:09.998Z,80.70
2019-02-23T22:15:40.131Z,81.50
2019-02-23T22:18:10.221Z,80.60
2019-02-23T22:20:40.376Z,82.40
2019-02-23T22:23:11.297Z,80.60
2019-02-23T22:25:41.418Z,80.80
2019-02-23T22:28:11.522Z,80.70
2019-02-23T22:30:41.666Z,81.20
2019-02-23T22:33:11.769Z,82.50
2019-02-23T22:35:41.938Z,82.80
2019-02-23T22:38:14.439Z,83.10
2019-02-23T22:40:44.579Z,83.60
2019-02-23T22:43:14.755Z,84.00
2019-02-23T22:45:44.952Z,84.40
2019-02-23T22:48:15.076Z,85.60
2019-02-23T22:50:45.256Z,85.10
2019-02-23T22:53:15.394Z,85.10
2019-02-23T22:55:45.538Z,85.40
2019-02-23T22:58:15.680Z,86.00
2019-02-23T23:00:50.445Z,85.40
2019-02-23T23:03:22.335Z,84.30
2019-02-23T23:05:52.488Z,85.30
2019-02-23T23:08:24.915Z,85.80
2019-02-23T23:10:55.137Z,86.10
2019-02-23T23:13:26.268Z,86.20
2019-02-23T23:15:56.432Z,85.50
2019-02-23T23:18:27.668Z,86.80
2019-02-23T23:20:57.819Z,86.80
2019-02-23T23:23:27.973Z,87.60
2019-02-23T23:25:58.913Z,87.80
2019-02-23T23:28:30.175Z,88.20
2019-02-23T23:31:00.328Z,88.30
2019-02-23T23:33:30.491Z,88.90
2019-02-23T23:36:00.672Z,89.00
2019-02-23T23:38:30.809Z,89.60
2019-02-23T23:41:00.947Z,88.70
2019-02-23T23:43:31.083Z,89.30
2019-02-23T23:46:01.254Z,89.80
2019-02-23T23:48:31.425Z,89.30
2019-02-23T23:51:01.565Z,88.90
2019-02-23T23:53:31.665Z,89.50
2019-02-23T23:56:02.841Z,89.60
2019-02-23T23:58:32.950Z,89.70
